Cut Bank Municipal Airport Cut Bank US
ICAO: KCTB
IATA: CTB
Category: Medium
Scheduled Services: No

Elevation: 3854 ft
TransAlt. 18000 ft.

Airport Communications:
SALT LAKE CITY CNTR:133.4
ASOS:119.025
GREAT FALLS RDO:122.2
CTAF/UNICOM:122.8

KCTB Zoom In..

Runways:

(A) RW 05 length 5302 ft width 75 ft
---- / hdg 47

(B) RW 13 length 5300 ft width 75 ft
---- / hdg 135

(C) RW 23 length 5302 ft width 75 ft
---- / hdg 227

(D) RW 31 length 5300 ft width 75 ft
---- / hdg 315

Location; KCTB
Day. 09 / Time. 01.56 Zulu
* Altimeter: 29.99
* Temperature: 19° c. 66.2°f.
* Wind from: 260° Speed 14 kn.
Dewpoint: 04° c.
Visibility: 10 Statute Miles.
Clouds: Few 7000 ft.
Clouds: Overcast 8500 ft.

KCTB 090156Z AUTO 26014KT 10SM FEW070 OVC085 19/04 A2999 RMK AO2 PK WND 25033/0101 SLP134 T01890044

Going to: --> -->


Wind From 260°
Speed 14 kn.

 
 
jpsmedia worldairports.se 2020   terms of use